Portada
METAR-TAF:

METAR-TAF

Aeroports :

Sharurah, Aràbia Saudita

latitud: 17-28N, longitud: 047-07E, altitud: 720 m

Observació

L'informe es va fer fa 46 minuts, a les 08:00 UTC
Vent 6 kt del Nord/Nord-Est
Temperatura 39°C
Humitat 9%
Pressió 1011 hPa
Visibilitat 10 km o més
Escasses núvols a una alçada de 4000 ft

METAR: OESH 190800Z 03006KT 9999 FEW040 39/00 Q1011 NOSIG

Hora: 11:46 (08:46 UTC)

Pronòstic

L'informe es va fer fa 9 hores i 46 minuts, a les 23:00 UTC
Pronòstic vàlid del 19 a les 00 UTC al 20 a les 06 UTC
Vent 5 kt del Nord/Nord-Est
Visibilitat 10 km o més
Núvols disperses a una alçada de 4000 ft
Evolucionant progressivament
l' 19 a les 06 UTC al 19 a les 08 UTC
Vent 15 kt del Nord
Visibilitat: 7000 m
Evolucionant progressivament
l' 19 a les 19 UTC al 19 a les 21 UTC
Vent 6 kt del Sud
Visibilitat 10 km o més
Escasses núvols a una alçada de 4000 ft

TAF: OESH 182300Z 1900/2006 02005KT 9999 SCT040 BECMG 1906/1908 01015KT 7000 NSC BECMG 1919/1921 19006KT 9999 FEW040

Observacions i pronòstics meteorològics de més de 4000 aeroports (METAR i TAF).

Les estacions disponibles són els punts grocs i vermells al mapa.

Posi el ratolí al punt desitjat per veure el nom de l'estació.

Feu clic per veure les observacions i els pronòstics meteorològics.

Per canviar el mapa: feu clic els botons verds amb una creu de color negre per apropar; al botó verd amb un guió per allunyar la imatge; o en les fletxes verdes per a mapes adjacents.


METAR-TAF: